Weather observations for the past three days for
Port Isabel, Port Isabel-Cameron County Airport
Metric (Imperial)
Date Time (cdt) Wind (kph) Vis. (km) Weather Sky Cond. Temperature (ºC) Relative Humidity Wind Chill (°C) Heat Index (°C) Pressure Precipitation (cm)
Air Dwpt 6 hour altimeter (cm) sea level (mb) 1 hr 3 hr 6 hr
Max. Min.
05 18:53 SE 26 16.09 Fair CLR 31.1 25.6 34.4 31.1 73% 39 75.74 1009.6
05 17:53 SE 31 16.09 Fair CLR 32.2 24.4 63% 39 75.74 1009.6
05 16:53 SE 31 16.09 Fair CLR 32.8 25 64% 40 75.74 1009.6
05 15:53 SE 31 16.09 Fair CLR 33.3 25 62% 41 75.77 1010.1
05 12:53 E 33 16.09 Fair and Breezy CLR 33.9 25 35 26.1 60% 42 75.92 1012.1
05 11:53 E 30 G 41 16.09 Mostly Cloudy BKN036 BKN046 34.4 25 58% 42 75.95 1012.6
05 10:53 SE 19 G 33 16.09 Mostly Cloudy BKN030 BKN037 32.8 24.4 61% 39 75.97 1012.8
05 09:53 SE 19 16.09 A Few Clouds FEW027 31.1 24.4 68% 37 75.97 1012.9
05 08:53 S 13 16.09 Fair CLR 28.9 25.6 82% 35 75.95 1012.5
05 07:53 SE 7 14.48 Fair CLR 26.1 25 94% 28 75.9 1011.7
05 06:53 S 7 16.09 Fair CLR 26.1 25 28.3 25.6 94% 28 75.87 1011.4
05 05:53 SE 7 16.09 Fair CLR 26.1 25 94% 28 75.87 1011.3
05 04:53 S 7 16.09 Fair CLR 27.2 25.6 91% 31 75.84 1011.2
05 03:53 S 7 16.09 Fair CLR 27.8 25.6 88% 33 75.84 1011.2
05 02:53 S 7 16.09 Fair CLR 27.8 25.6 88% 33 75.9 1011.7
05 01:53 SE 13 16.09 Fair CLR 27.8 25.6 88% 33 75.92 1012.0
05 00:53 S 13 16.09 Fair CLR 28.3 25.6 31.1 28.3 85% 34 75.95 1012.3
04 23:53 SE 13 16.09 Fair CLR 28.3 26.1 88% 34 75.95 1012.3
04 22:53 SE 13 16.09 Fair CLR 28.9 26.1 85% 36 75.95 1012.4
04 21:53 SE 19 16.09 Fair CLR 29.4 26.1 82% 36 75.92 1012.2
04 20:53 SE 20 16.09 Fair CLR 29.4 26.1 82% 36 75.87 1011.5
04 19:53 SE 22 16.09 Fair CLR 30 25.6 77% 37 75.84 1011.1
04 18:53 SE 28 16.09 A Few Clouds FEW024 31.1 25 35.6 31.1 70% 38 75.84 1010.9
04 17:53 SE 33 G 43 16.09 Fair and Breezy CLR 31.7 25.6 70% 40 75.82 1010.8
04 16:53 E 33 G 44 16.09 Fair and Breezy CLR 32.8 25.6 66% 41 75.82 1010.8
04 15:53 SE 37 G 48 16.09 Fair and Breezy CLR 33.3 25.6 64% 42 75.82 1010.9
04 14:53 SE 33 16.09 Fair and Breezy CLR 33.9 25.6 62% 43 75.84 1011.0
04 13:53 E 30 G 43 16.09 Fair CLR 34.4 25 58% 42 75.87 1011.4
04 12:53 SE 22 G 35 16.09 A Few Clouds FEW033 35 25 35 26.7 56% 43 75.92 1011.9
04 11:53 SE 31 G 37 16.09 Partly Cloudy SCT035 33.9 24.4 58% 41 75.95 1012.4
04 10:53 S 24 16.09 Partly Cloudy SCT033 32.8 23.9 59% 39 75.95 1012.6
04 09:53 S 20 G 37 16.09 Partly Cloudy FEW026 SCT032 31.1 24.4 68% 37 75.97 1012.6
04 08:53 S 19 16.09 Fair CLR 29.4 25 77% 35 75.95 1012.3
04 07:53 SE 11 16.09 Fair CLR 27.2 25 88% 31 75.92 1012.0
04 06:53 SE 11 16.09 Fair CLR 26.7 25 28.3 26.7 90% 30 75.87 1011.4
04 05:53 SE 7 16.09 Fair CLR 26.7 25 90% 30 75.87 1011.3
04 04:53 SE 9 16.09 A Few Clouds FEW026 27.2 25 88% 31 75.84 1011.2
04 03:53 S 9 16.09 Fair CLR 27.8 25 85% 32 75.87 1011.3
04 02:53 S 11 16.09 Fair CLR 27.8 25.6 88% 33 75.87 1011.4
04 01:53 S 13 16.09 Fair CLR 28.3 25.6 85% 34 75.9 1011.8
04 00:53 S 17 16.09 Fair CLR 28.3 25.6 31.1 28.3 85% 34 75.92 1012.0
03 23:53 S 19 16.09 Fair CLR 28.9 25.6 82% 35 75.92 1011.9
03 22:53 SE 17 16.09 Fair CLR 28.9 25.6 82% 35 75.92 1011.9
03 21:53 SE 28 16.09 Fair CLR 29.4 26.1 82% 36 75.9 1011.7
03 20:53 SE 24 G 37 16.09 Fair CLR 29.4 26.1 82% 36 75.84 1011.1
03 19:53 SE 30 G 39 16.09 Fair CLR 30 25.6 77% 37 75.82 1010.8
03 17:53 SE 33 G 43 16.09 A Few Clouds and Breezy FEW027 31.7 25.6 70% 40 75.77 1010.0
03 16:53 SE 33 G 46 16.09 Fair and Breezy CLR 33.3 25.6 64% 42 75.74 1009.8
03 15:53 SE 33 G 50 16.09 Light Rain and Breezy FEW034 33.9 26.1 64% 44 75.77 1010.0
03 13:53 E 35 G 52 16.09 Light Rain and Breezy SCT043 34.4 26.1 62% 44 75.82 1010.7
03 12:53 S 19 G 37 16.09 A Few Clouds FEW043 35.6 23.9 36.7 27.8 51% 42 75.87 1011.4
03 11:53 SE 26 G 39 16.09 Partly Cloudy SCT038 35 24.4 54% 42 75.95 1012.3
03 10:53 S 26 G 39 16.09 A Few Clouds FEW029 33.3 24.4 60% 40 75.95 1012.5
03 09:53 S 22 16.09 A Few Clouds FEW024 31.1 24.4 68% 37 75.97 1012.8
03 08:53 S 24 16.09 Fair CLR 30 25.6 77% 37 76 1013.0
03 07:53 S 13 16.09 Fair CLR 28.3 25.6 85% 34 75.97 1012.7
03 06:53 S 13 16.09 Fair CLR 27.8 25.6 28.9 27.8 88% 33 75.95 1012.3
03 05:53 S 9 16.09 Fair CLR 28.3 25.6 85% 34 75.95 1012.4
03 04:53 S 15 16.09 A Few Clouds FEW021 28.3 25.6 85% 34 75.95 1012.3
03 03:53 S 15 16.09 Fair CLR 28.3 25.6 85% 34 75.97 1012.6
03 02:53 S 15 16.09 Fair CLR 28.9 25.6 82% 35 75.97 1012.8
03 01:53 S 13 16.09 Fair CLR 28.9 25.6 82% 35 76.02 1013.3
03 00:53 S 19 16.09 Fair CLR 28.9 26.1 31.7 28.9 85% 36 76.02 1013.3
02 23:53 S 19 16.09 Fair CLR 29.4 26.1 82% 36 76.02 1013.6
02 22:53 SE 22 16.09 Fair CLR 29.4 26.1 82% 36 76.02 1013.4
02 21:53 SE 24 16.09 Fair CLR 29.4 26.1 82% 36 75.97 1012.9
02 20:53 SE 22 16.09 A Few Clouds FEW025 29.4 26.1 82% 36 75.92 1012.2
02 19:53 SE 22 16.09 Mostly Cloudy BKN021 30.6 26.1 77% 39 75.9 1011.6
Date Time (cdt) Wind (kph) Vis. (km) Weather Sky Cond. Air Dwpt Max. Min. Relative Humidity Wind Chill (°C) Heat Index (°C) altimeter (cm) sea level (mb) 1 hr 3 hr 6 hr
6 hour
Temperature (ºC) Pressure Precipitation (cm)